Terminal Aerodrome Forecast
Issued by NWS North Platte, NE

Home | Current Version | Previous Version | Graphics & Text | Print | Product List | Glossary On
Versions: 1 2 3 4 5 6 7 8 9 10 11 12 13 14 15 16 17 18 19
000
FTUS43 KLBF 160520
TAFVTN
TAF
KVTN 160520Z 1606/1706 33011KT P6SM -TSRA SCT070CB BKN090
     FM160800 34006KT P6SM -SHRA OVC070
     FM161200 33006KT P6SM OVC050
     FM161400 33010KT P6SM BKN015
     FM161700 34011KT P6SM BKN035=

USA.gov is the U.S. government's official web portal to all federal, state and local government web resources and services.